Terminal Aerodrome Forecast
Issued by NWS

Home | Current Version | Previous Version | Text Only | Print | Product List | Glossary On
Versions: 1 2 3 4 5 6 7 8 9 10 11 12 13 14 15 16 17 18 19 20 21 22 23 24 25 26 27 28 29 30 31 32 33 34 35 36 37 38
000
FTAK31 PANC 231258 AAA
TAFAIL
TAF AMD
PAIL 231258Z 2313/2412 08010KT P6SM VCSH SCT020 OVC060
      TEMPO 2313/2315 08010G18KT P6SM -SHRA BKN020
     FM231500 10013G20KT P6SM SCT030 OVC060
     FM232000 10018G28KT P6SM SCT025 OVC040
     FM240500 10013G20KT P6SM SCT030 OVC060=

USA.gov is the U.S. government's official web portal to all federal, state and local government web resources and services.